Time;durP1;ratioP1;P1;durP2;ratioP2;P2;SDS_P1;SDS_P2;PMS_P1;PMS_P2;Temp;Humidity;BMP_temperature;BMP_pressure;BME280_temperature;BME280_humidity;BME280_pressure;Samples;Min_cycle;Max_cycle;Signal;HPM_P1;HPM_P2
2021/12/31 00:00:58;;;;;;;2.20;1.30;;;18.20;69.10;;;;;;10507316;28;20033;-47
2021/12/31 00:05:59;;;;;;;1.50;0.82;;;18.20;69.20;;;;;;10531617;28;20162;-46
2021/12/31 00:11:01;;;;;;;2.72;1.10;;;18.30;68.80;;;;;;10480833;28;20425;-46
2021/12/31 00:16:01;;;;;;;2.83;1.33;;;18.30;68.70;;;;;;10495570;28;20032;-50
2021/12/31 00:21:03;;;;;;;2.42;1.20;;;18.30;68.90;;;;;;10494708;28;20123;-47
2021/12/31 00:26:04;;;;;;;1.30;0.98;;;18.20;69.00;;;;;;10495646;28;20033;-49
2021/12/31 00:31:04;;;;;;;1.80;0.90;;;18.10;69.10;;;;;;10511801;28;20029;-47
2021/12/31 00:36:05;;;;;;;1.63;1.00;;;18.30;68.90;;;;;;10534855;28;20036;-50
2021/12/31 00:41:06;;;;;;;2.03;1.25;;;18.30;68.70;;;;;;10506487;28;20028;-49
2021/12/31 00:46:07;;;;;;;1.40;1.00;;;18.30;68.70;;;;;;10500990;28;20111;-49
2021/12/31 00:51:07;;;;;;;2.45;1.23;;;18.30;68.70;;;;;;10478104;28;20028;-51
2021/12/31 00:56:08;;;;;;;1.92;1.05;;;18.30;68.60;;;;;;10531928;28;20107;-52
2021/12/31 01:01:16;;;;;;;4.00;1.10;;;18.20;68.80;;;;;;10512356;28;20034;-51
2021/12/31 01:06:17;;;;;;;2.17;1.10;;;18.20;68.90;;;;;;10504184;28;20085;-52
2021/12/31 01:11:18;;;;;;;1.92;0.95;;;18.20;69.60;;;;;;10503647;28;20401;-51
2021/12/31 01:16:21;;;;;;;3.92;1.40;;;18.30;68.80;;;;;;10516363;28;20028;-52
2021/12/31 01:21:22;;;;;;;1.40;0.90;;;18.30;68.60;;;;;;10532586;28;20040;-51
2021/12/31 01:26:22;;;;;;;1.77;1.23;;;18.20;68.60;;;;;;10522420;28;20040;-46
2021/12/31 01:31:24;;;;;;;1.60;1.25;;;18.20;68.70;;;;;;10501182;28;20036;-50
2021/12/31 01:36:25;;;;;;;1.33;0.98;;;18.20;68.90;;;;;;10502598;28;20050;-49
2021/12/31 01:41:25;;;;;;;1.05;0.93;;;18.20;69.00;;;;;;10517487;28;20036;-50
2021/12/31 01:46:26;;;;;;;1.73;0.98;;;18.30;68.60;;;;;;10529968;28;20040;-51
2021/12/31 01:51:27;;;;;;;1.42;0.70;;;18.30;68.50;;;;;;10502103;28;20115;-52
2021/12/31 01:56:33;;;;;;;1.35;1.15;;;18.30;68.60;;;;;;10540188;28;20117;-46
2021/12/31 02:01:35;;;;;;;1.80;1.00;;;18.20;68.70;;;;;;10491200;28;20043;-50
2021/12/31 02:06:36;;;;;;;1.35;0.85;;;18.10;68.90;;;;;;10538750;28;20034;-50
2021/12/31 02:11:36;;;;;;;2.22;0.70;;;18.20;68.60;;;;;;10510419;28;20033;-50
2021/12/31 02:16:37;;;;;;;1.02;0.80;;;18.30;68.30;;;;;;10540400;28;20535;-47
2021/12/31 02:21:41;;;;;;;1.83;0.88;;;18.30;68.20;;;;;;10492500;28;20043;-48
2021/12/31 02:26:42;;;;;;;1.25;0.77;;;18.30;68.30;;;;;;10500813;28;20032;-49
2021/12/31 02:31:44;;;;;;;1.08;0.82;;;18.30;68.40;;;;;;10523667;28;20123;-46
2021/12/31 02:36:45;;;;;;;1.63;0.85;;;18.20;68.60;;;;;;10500669;28;20036;-52
2021/12/31 02:41:46;;;;;;;0.82;0.60;;;18.20;68.80;;;;;;10482296;28;20036;-50
2021/12/31 02:46:46;;;;;;;1.30;0.93;;;18.30;68.40;;;;;;10501618;28;20035;-49
2021/12/31 02:51:47;;;;;;;0.90;0.60;;;18.30;68.40;;;;;;10511736;28;20115;-50
2021/12/31 02:56:48;;;;;;;1.23;0.70;;;18.30;68.40;;;;;;10481549;28;20027;-46
2021/12/31 03:01:49;;;;;;;1.52;0.88;;;18.20;68.50;;;;;;10487614;28;20035;-50
2021/12/31 03:06:52;;;;;;;1.50;1.00;;;18.10;68.70;;;;;;10522520;28;20028;-51
2021/12/31 03:11:57;;;;;;;1.85;0.80;;;18.20;68.50;;;;;;10540482;28;20028;-47
2021/12/31 03:16:58;;;;;;;0.95;0.60;;;18.30;68.30;;;;;;10501397;28;20032;-48
2021/12/31 03:21:59;;;;;;;1.70;0.70;;;18.30;68.10;;;;;;10497133;28;20117;-49
2021/12/31 03:27:00;;;;;;;0.93;0.60;;;18.30;68.10;;;;;;10508335;28;20032;-46
2021/12/31 03:32:01;;;;;;;1.58;0.90;;;18.30;68.20;;;;;;10501954;28;20032;-47
2021/12/31 03:37:02;;;;;;;1.75;0.70;;;18.30;68.40;;;;;;10509104;28;20017;-47
2021/12/31 03:42:03;;;;;;;1.98;0.82;;;18.20;68.50;;;;;;10525217;28;20032;-45
2021/12/31 03:47:04;;;;;;;1.95;0.90;;;18.20;68.60;;;;;;10492351;28;20028;-46
2021/12/31 03:52:05;;;;;;;1.23;0.50;;;18.30;68.30;;;;;;10493040;28;20036;-47
2021/12/31 03:57:05;;;;;;;1.67;0.90;;;18.30;68.10;;;;;;10520822;28;20506;-47
2021/12/31 04:02:06;;;;;;;1.27;0.90;;;18.30;68.20;;;;;;10497996;28;20028;-49
2021/12/31 04:07:07;;;;;;;0.65;0.65;;;18.30;68.30;;;;;;10496725;28;20123;-51
2021/12/31 04:12:08;;;;;;;0.70;0.60;;;18.20;68.40;;;;;;10503019;28;20065;-46
2021/12/31 04:17:09;;;;;;;1.35;0.75;;;18.30;68.40;;;;;;10506786;28;20024;-50
2021/12/31 04:22:12;;;;;;;1.58;1.00;;;18.30;68.20;;;;;;10520044;28;20069;-50
2021/12/31 04:27:13;;;;;;;2.08;0.57;;;18.20;68.20;;;;;;10500065;28;20487;-51
2021/12/31 04:32:14;;;;;;;1.63;0.73;;;18.20;68.40;;;;;;10507893;28;20035;-49
2021/12/31 04:37:14;;;;;;;0.82;0.60;;;18.20;68.50;;;;;;10496037;28;20112;-45
2021/12/31 04:42:15;;;;;;;0.65;0.60;;;18.10;68.60;;;;;;10503456;28;20024;-46
2021/12/31 04:47:16;;;;;;;1.05;0.70;;;18.20;68.20;;;;;;10481677;28;20119;-45
2021/12/31 04:52:16;;;;;;;1.15;0.75;;;18.30;68.10;;;;;;10519290;28;20085;-46
2021/12/31 04:57:20;;;;;;;1.23;0.65;;;18.30;68.60;;;;;;10519432;28;20028;-45
2021/12/31 05:02:21;;;;;;;0.98;0.52;;;18.30;68.20;;;;;;10517052;28;20067;-45
2021/12/31 05:07:22;;;;;;;0.80;0.47;;;18.20;68.80;;;;;;10500408;28;20093;-49
2021/12/31 05:12:27;;;;;;;1.02;0.60;;;18.30;68.20;;;;;;10518985;28;20083;-50
2021/12/31 05:17:28;;;;;;;1.70;0.65;;;18.30;68.00;;;;;;10503268;28;20025;-49
2021/12/31 05:22:28;;;;;;;0.90;0.65;;;18.30;68.00;;;;;;10518170;28;20424;-51
2021/12/31 05:27:29;;;;;;;1.42;0.70;;;18.20;68.10;;;;;;10520047;28;20105;-46
2021/12/31 05:32:30;;;;;;;0.85;0.50;;;18.20;68.20;;;;;;10516624;28;20429;-46
2021/12/31 05:37:31;;;;;;;1.77;0.85;;;18.30;68.50;;;;;;10524891;28;20114;-49
2021/12/31 05:42:32;;;;;;;0.60;0.60;;;18.40;67.80;;;;;;10497426;28;20038;-45
2021/12/31 05:47:32;;;;;;;1.10;0.50;;;18.30;67.90;;;;;;10533081;28;20040;-47
2021/12/31 05:52:34;;;;;;;0.70;0.40;;;18.20;67.90;;;;;;10527472;28;20047;-46
2021/12/31 05:57:34;;;;;;;1.05;0.70;;;18.40;67.80;;;;;;10487369;28;20423;-46
2021/12/31 06:02:35;;;;;;;0.73;0.60;;;18.40;67.60;;;;;;10487740;28;20109;-45
2021/12/31 06:07:36;;;;;;;0.60;0.55;;;18.40;67.60;;;;;;10483721;28;20032;-45
2021/12/31 06:12:37;;;;;;;1.25;0.60;;;18.30;67.80;;;;;;10501061;28;20432;-51
2021/12/31 06:17:38;;;;;;;2.95;0.98;;;18.50;68.20;;;;;;10483206;28;20174;-49
2021/12/31 06:22:39;;;;;;;1.23;0.40;;;18.50;69.10;;;;;;10438292;28;20179;-51
2021/12/31 06:27:40;;;;;;;4.40;0.95;;;18.60;68.70;;;;;;10400109;28;20033;-48
2021/12/31 06:32:40;;;;;;;5.93;0.70;;;18.60;69.50;;;;;;10450848;28;20037;-49
2021/12/31 06:37:41;;;;;;;4.55;0.98;;;18.60;69.30;;;;;;10438331;28;20115;-50
2021/12/31 06:42:42;;;;;;;6.10;1.00;;;18.50;69.70;;;;;;10435187;28;20021;-47
2021/12/31 06:47:43;;;;;;;6.10;0.93;;;18.50;69.60;;;;;;10445687;28;20112;-44
2021/12/31 06:52:45;;;;;;;6.70;1.25;;;18.50;69.80;;;;;;10457394;28;20404;-43
2021/12/31 06:57:47;;;;;;;8.70;1.38;;;18.40;70.50;;;;;;10435510;28;20024;-45
2021/12/31 07:02:47;;;;;;;14.23;1.90;;;18.30;69.90;;;;;;10439962;28;20033;-45
2021/12/31 07:07:48;;;;;;;9.02;1.60;;;18.30;70.50;;;;;;10457164;28;20045;-45
2021/12/31 07:12:48;;;;;;;9.48;1.20;;;18.20;70.10;;;;;;10453180;28;20175;-47
2021/12/31 07:17:49;;;;;;;10.35;1.60;;;18.20;70.40;;;;;;10451891;28;20029;-49
2021/12/31 07:22:50;;;;;;;8.20;1.55;;;18.10;70.20;;;;;;10427515;28;20128;-52
2021/12/31 07:27:53;;;;;;;8.40;1.90;;;18.10;70.30;;;;;;10438470;28;20036;-47
2021/12/31 07:32:54;;;;;;;15.77;1.55;;;18.10;70.40;;;;;;10450738;28;20083;-47
2021/12/31 07:37:56;;;;;;;10.32;2.08;;;18.10;70.60;;;;;;10450769;28;20074;-48
2021/12/31 07:42:57;;;;;;;9.65;1.80;;;18.10;70.50;;;;;;10453447;28;20024;-46
2021/12/31 07:47:57;;;;;;;6.47;1.38;;;18.00;70.60;;;;;;10451228;28;20112;-51
2021/12/31 07:52:59;;;;;;;5.38;1.42;;;18.00;70.70;;;;;;10441010;28;20420;-48
2021/12/31 07:57:59;;;;;;;4.63;1.25;;;17.90;70.70;;;;;;10436386;28;20498;-47
2021/12/31 08:03:01;;;;;;;11.10;2.17;;;17.90;70.80;;;;;;10434329;28;20088;-47
2021/12/31 08:08:04;;;;;;;8.85;1.67;;;18.00;70.50;;;;;;10410155;28;20080;-46
2021/12/31 08:13:06;;;;;;;4.90;1.52;;;18.00;70.30;;;;;;10423677;28;20460;-46
2021/12/31 08:18:06;;;;;;;8.10;1.73;;;18.10;70.20;;;;;;10410541;28;20029;-46
2021/12/31 08:23:09;;;;;;;11.68;1.98;;;18.10;70.30;;;;;;10410124;28;20160;-49
2021/12/31 08:28:11;;;;;;;13.00;2.17;;;18.20;70.10;;;;;;10416624;28;20029;-45
2021/12/31 08:33:12;;;;;;;11.05;2.35;;;18.20;70.50;;;;;;10434523;28;20018;-46
2021/12/31 08:38:12;;;;;;;13.10;2.00;;;18.10;70.40;;;;;;10411120;28;20029;-45
2021/12/31 08:43:13;;;;;;;10.32;2.05;;;18.10;70.40;;;;;;10411028;28;20128;-44
2021/12/31 08:48:14;;;;;;;10.93;2.85;;;18.10;70.50;;;;;;10410918;28;20390;-44
2021/12/31 08:53:14;;;;;;;14.82;2.55;;;18.10;70.60;;;;;;10422065;28;20116;-44
2021/12/31 08:58:16;;;;;;;18.23;2.40;;;18.00;71.80;;;;;;10441562;28;20096;-46
2021/12/31 09:03:17;;;;;;;25.95;3.92;;;18.00;71.30;;;;;;10419071;28;20026;-45
2021/12/31 09:08:17;;;;;;;20.38;3.35;;;18.00;71.00;;;;;;10412428;28;20108;-51
2021/12/31 09:13:19;;;;;;;11.55;2.65;;;18.00;70.80;;;;;;10412282;28;20108;-48
2021/12/31 09:18:21;;;;;;;13.98;3.00;;;18.10;70.60;;;;;;10417442;28;20504;-50
2021/12/31 09:23:22;;;;;;;10.05;1.92;;;18.00;70.50;;;;;;10425619;28;20090;-47
2021/12/31 09:28:23;;;;;;;11.02;2.92;;;18.00;70.50;;;;;;10418161;28;20449;-47
2021/12/31 09:33:24;;;;;;;11.65;2.10;;;18.00;70.60;;;;;;10416538;28;20545;-45
2021/12/31 09:38:24;;;;;;;12.38;2.50;;;18.00;70.60;;;;;;10399788;28;20029;-44
2021/12/31 09:43:25;;;;;;;7.78;1.73;;;17.90;70.60;;;;;;10416210;28;20109;-47
2021/12/31 09:48:26;;;;;;;8.40;2.75;;;18.00;70.20;;;;;;10417186;28;20045;-46
2021/12/31 09:53:26;;;;;;;8.52;2.60;;;18.10;70.00;;;;;;10430132;28;20037;-44
2021/12/31 09:58:28;;;;;;;8.27;2.40;;;18.10;70.00;;;;;;10457100;28;20037;-46
2021/12/31 10:03:31;;;;;;;9.85;1.88;;;18.10;69.90;;;;;;10425359;28;20026;-44
2021/12/31 10:08:43;;;;;;;3.85;1.27;;;18.20;69.60;;;;;;10416380;28;20433;-46
2021/12/31 10:13:52;;;;;;;6.35;1.75;;;18.20;69.50;;;;;;10416293;28;20038;-45
2021/12/31 10:19:15;;;;;;;8.40;2.47;;;18.20;69.50;;;;;;10417785;28;20037;-46
2021/12/31 10:24:32;;;;;;;12.40;2.53;;;18.30;69.50;;;;;;10483206;28;20081;-48
2021/12/31 10:29:33;;;;;;;11.63;2.35;;;18.30;69.30;;;;;;10525348;28;20484;-47
2021/12/31 10:34:37;;;;;;;7.82;1.67;;;18.40;69.20;;;;;;10491524;28;20029;-44
2021/12/31 10:39:39;;;;;;;8.23;1.90;;;18.50;69.30;;;;;;10495926;28;20529;-46
2021/12/31 10:44:46;;;;;;;9.85;1.95;;;18.60;69.00;;;;;;10503063;28;20101;-47
2021/12/31 10:50:01;;;;;;;11.82;3.25;;;18.90;68.80;;;;;;10518614;28;20035;-44
2021/12/31 10:55:18;;;;;;;13.38;1.90;;;18.70;70.30;;;;;;10526411;28;20472;-45
2021/12/31 11:00:21;;;;;;;9.57;2.25;;;18.60;71.20;;;;;;10483139;28;20047;-44
2021/12/31 11:05:24;;;;;;;11.35;1.95;;;18.50;70.90;;;;;;10510145;28;20051;-46
2021/12/31 11:10:27;;;;;;;12.75;2.75;;;18.50;71.20;;;;;;10521597;28;20488;-47
2021/12/31 11:15:28;;;;;;;9.95;2.35;;;18.50;71.60;;;;;;10485575;28;20067;-45
2021/12/31 11:20:30;;;;;;;6.50;1.70;;;18.40;71.10;;;;;;10496491;28;20055;-45
2021/12/31 11:25:32;;;;;;;11.73;2.70;;;18.30;71.10;;;;;;10498051;28;20060;-49
2021/12/31 11:30:42;;;;;;;15.80;2.58;;;18.30;71.00;;;;;;10488072;28;20036;-50
2021/12/31 11:35:44;;;;;;;8.65;2.60;;;18.30;71.10;;;;;;10484617;28;20123;-50
2021/12/31 11:40:50;;;;;;;12.55;3.00;;;18.20;70.80;;;;;;10497152;28;20115;-48
2021/12/31 11:46:09;;;;;;;15.50;3.58;;;18.20;70.70;;;;;;10478179;28;20044;-50
2021/12/31 11:51:22;;;;;;;16.05;4.28;;;18.20;71.00;;;;;;10499463;28;20036;-46
2021/12/31 11:56:43;;;;;;;11.68;2.83;;;18.10;70.80;;;;;;10511311;28;20135;-50
2021/12/31 12:01:48;;;;;;;7.95;2.65;;;18.10;70.80;;;;;;10505373;28;20037;-50
2021/12/31 12:07:02;;;;;;;9.63;3.15;;;18.10;71.00;;;;;;10478645;28;20032;-50
2021/12/31 12:12:10;;;;;;;11.88;2.80;;;18.00;71.10;;;;;;10491416;28;20032;-49
2021/12/31 12:17:14;;;;;;;8.25;2.30;;;18.00;71.20;;;;;;10491793;28;20495;-51
2021/12/31 12:22:32;;;;;;;8.10;2.00;;;18.00;71.10;;;;;;10487942;28;20055;-49
2021/12/31 12:27:34;;;;;;;8.13;2.30;;;17.90;71.10;;;;;;10504927;28;20060;-48
2021/12/31 12:32:39;;;;;;;8.88;2.72;;;17.90;71.10;;;;;;10477923;28;20055;-50
2021/12/31 12:37:40;;;;;;;11.05;2.72;;;17.90;71.00;;;;;;10535748;28;20464;-48
2021/12/31 12:42:45;;;;;;;7.35;2.45;;;17.90;71.00;;;;;;10499352;28;20031;-48
2021/12/31 12:47:51;;;;;;;9.52;2.35;;;17.90;70.90;;;;;;10482303;28;20031;-46
2021/12/31 12:52:56;;;;;;;11.25;2.83;;;17.90;71.00;;;;;;10522983;28;20035;-46
2021/12/31 12:58:01;;;;;;;5.90;1.90;;;17.90;71.00;;;;;;10525820;28;20384;-45
2021/12/31 13:03:10;;;;;;;9.27;2.10;;;17.90;71.10;;;;;;10513185;28;20111;-45
2021/12/31 13:08:15;;;;;;;6.60;2.05;;;17.80;71.00;;;;;;10497928;28;20043;-46
2021/12/31 13:13:17;;;;;;;4.65;1.63;;;17.90;71.00;;;;;;10481712;28;20113;-45
2021/12/31 13:18:27;;;;;;;6.55;2.00;;;17.90;70.80;;;;;;10481490;28;20036;-46
2021/12/31 13:23:28;;;;;;;8.25;2.60;;;17.90;70.70;;;;;;10501047;28;20404;-46
2021/12/31 13:28:28;;;;;;;11.98;2.63;;;18.00;70.80;;;;;;10482760;28;20028;-45
2021/12/31 13:33:47;;;;;;;11.10;3.15;;;18.10;70.60;;;;;;10482728;28;20043;-44
2021/12/31 13:39:07;;;;;;;11.50;2.55;;;18.20;70.20;;;;;;10482326;28;20031;-48
2021/12/31 13:44:07;;;;;;;18.48;4.45;;;18.20;70.30;;;;;;10504460;28;20502;-48
2021/12/31 13:49:20;;;;;;;18.92;3.50;;;18.20;70.60;;;;;;10498894;28;20043;-47
2021/12/31 13:54:36;;;;;;;12.00;3.38;;;18.20;70.70;;;;;;10508066;28;20032;-46
2021/12/31 13:59:38;;;;;;;14.98;3.35;;;18.20;70.80;;;;;;10508254;28;20549;-45
2021/12/31 14:04:54;;;;;;;11.35;2.85;;;18.10;70.80;;;;;;10506911;28;20244;-48
2021/12/31 14:09:56;;;;;;;14.15;3.75;;;18.10;71.00;;;;;;10511521;28;20035;-46
2021/12/31 14:14:57;;;;;;;11.82;3.47;;;18.10;71.20;;;;;;10498869;28;20059;-45
2021/12/31 14:19:58;;;;;;;10.48;2.35;;;18.00;71.90;;;;;;10504807;28;20488;-45
2021/12/31 14:24:59;;;;;;;11.93;3.22;;;18.00;71.90;;;;;;10519998;28;20031;-47
2021/12/31 14:29:59;;;;;;;7.68;2.70;;;17.90;72.90;;;;;;10539746;28;20024;-48
2021/12/31 14:35:00;;;;;;;9.68;2.55;;;17.90;72.70;;;;;;10539729;28;20416;-44
2021/12/31 14:40:03;;;;;;;10.02;3.10;;;17.90;73.00;;;;;;10527563;28;20528;-44
2021/12/31 14:45:07;;;;;;;5.18;2.70;;;17.90;73.10;;;;;;10522489;28;20076;-50
2021/12/31 14:50:11;;;;;;;10.63;2.70;;;17.90;73.30;;;;;;10538995;28;20085;-46
2021/12/31 14:55:15;;;;;;;13.18;3.47;;;17.90;73.30;;;;;;10523021;28;20488;-48
2021/12/31 15:00:19;;;;;;;16.38;3.22;;;17.90;73.20;;;;;;10500531;28;20507;-45
2021/12/31 15:05:21;;;;;;;12.10;3.20;;;17.90;73.50;;;;;;10503535;28;20435;-49
2021/12/31 15:10:21;;;;;;;11.95;3.08;;;17.90;73.40;;;;;;10496755;28;20033;-48
2021/12/31 15:15:22;;;;;;;12.88;2.95;;;17.80;73.40;;;;;;10496626;28;20024;-50
2021/12/31 15:20:23;;;;;;;9.80;2.97;;;17.80;73.50;;;;;;10478515;28;20052;-51
2021/12/31 15:25:24;;;;;;;11.98;3.25;;;17.80;73.60;;;;;;10507226;28;20032;-50
2021/12/31 15:30:24;;;;;;;13.07;3.53;;;17.80;73.60;;;;;;10511662;28;20029;-50
2021/12/31 15:35:25;;;;;;;20.10;3.67;;;17.80;73.50;;;;;;10477803;28;20024;-50
2021/12/31 15:40:27;;;;;;;13.88;3.35;;;17.80;73.70;;;;;;10495549;28;20444;-50
2021/12/31 15:45:27;;;;;;;8.60;2.70;;;17.80;73.70;;;;;;10496396;28;20488;-50
2021/12/31 15:50:28;;;;;;;9.32;2.92;;;17.80;73.80;;;;;;10491811;28;20108;-50
2021/12/31 15:55:29;;;;;;;19.25;3.78;;;17.80;73.00;;;;;;10527285;28;20031;-50
2021/12/31 16:00:31;;;;;;;20.08;2.95;;;17.80;73.70;;;;;;10512411;28;20028;-49
2021/12/31 16:05:32;;;;;;;21.48;3.47;;;17.90;73.80;;;;;;10509740;28;20039;-51
2021/12/31 16:10:34;;;;;;;36.60;5.05;;;17.80;73.80;;;;;;10519271;28;20383;-50
2021/12/31 16:15:34;;;;;;;23.88;5.28;;;17.90;73.80;;;;;;10516762;28;20051;-48
2021/12/31 16:20:36;;;;;;;43.22;6.15;;;17.90;73.60;;;;;;10515892;28;20062;-47
2021/12/31 16:25:38;;;;;;;38.78;5.53;;;17.90;73.60;;;;;;10517802;28;20040;-49
2021/12/31 16:30:39;;;;;;;31.63;5.75;;;17.90;73.80;;;;;;10510985;28;20027;-49
2021/12/31 16:35:40;;;;;;;16.20;3.90;;;17.90;73.70;;;;;;10498479;28;20028;-47
2021/12/31 16:40:41;;;;;;;18.65;4.18;;;18.10;73.10;;;;;;10501720;28;20032;-48
2021/12/31 16:45:41;;;;;;;20.25;4.95;;;18.30;72.90;;;;;;10495529;28;20056;-48
2021/12/31 16:50:42;;;;;;;17.38;4.60;;;18.40;72.20;;;;;;10520539;28;20558;-49
2021/12/31 16:55:43;;;;;;;20.42;5.53;;;18.50;71.50;;;;;;10505519;28;20462;-46
2021/12/31 17:00:44;;;;;;;20.50;6.00;;;18.60;71.80;;;;;;10494958;28;20715;-50
2021/12/31 17:05:44;;;;;;;23.90;5.00;;;19.00;71.50;;;;;;10523323;28;20025;-50
2021/12/31 17:10:46;;;;;;;15.88;5.00;;;19.30;70.80;;;;;;10502368;28;20028;-49
2021/12/31 17:15:47;;;;;;;18.40;5.57;;;19.30;70.70;;;;;;10477335;28;20076;-47
2021/12/31 17:20:48;;;;;;;18.55;5.28;;;19.20;71.50;;;;;;10517076;28;20094;-48
2021/12/31 17:25:49;;;;;;;14.10;4.22;;;19.10;72.10;;;;;;10504921;28;20077;-47
2021/12/31 17:30:50;;;;;;;13.85;4.53;;;19.00;71.90;;;;;;10503889;28;20077;-52
2021/12/31 17:35:51;;;;;;;15.65;4.63;;;18.90;71.90;;;;;;10522929;28;20100;-49
2021/12/31 17:40:52;;;;;;;14.48;4.15;;;18.60;72.20;;;;;;10526781;28;20043;-50
2021/12/31 17:45:52;;;;;;;18.00;4.40;;;18.50;72.70;;;;;;10527308;28;20036;-48
2021/12/31 17:50:54;;;;;;;12.73;4.32;;;18.50;72.70;;;;;;10520197;28;20469;-50
2021/12/31 17:55:55;;;;;;;15.52;5.43;;;18.50;72.70;;;;;;10535882;28;20115;-51
2021/12/31 18:00:56;;;;;;;20.90;4.88;;;18.40;72.80;;;;;;10500785;28;20488;-51
2021/12/31 18:05:57;;;;;;;12.50;4.43;;;18.30;72.90;;;;;;10528164;28;20488;-48
2021/12/31 18:10:58;;;;;;;14.40;4.93;;;18.30;72.90;;;;;;10526881;28;20032;-48
2021/12/31 18:15:59;;;;;;;8.30;4.10;;;18.30;72.70;;;;;;10489857;28;20108;-49
2021/12/31 18:21:00;;;;;;;12.80;4.88;;;18.30;72.70;;;;;;10538078;28;20085;-53
2021/12/31 18:26:02;;;;;;;12.20;3.88;;;18.20;72.80;;;;;;10533189;28;20118;-48
2021/12/31 18:31:04;;;;;;;12.07;4.43;;;18.20;72.90;;;;;;10513825;28;20472;-48
2021/12/31 18:36:05;;;;;;;8.25;3.53;;;18.20;73.00;;;;;;10498169;28;20610;-47
2021/12/31 18:41:06;;;;;;;14.45;3.95;;;18.10;73.20;;;;;;10515231;28;20354;-50
2021/12/31 18:46:19;;;;;;;15.00;4.18;;;18.20;73.10;;;;;;10537858;28;20036;-49
2021/12/31 18:51:22;;;;;;;15.45;4.07;;;18.10;73.20;;;;;;10512088;28;20447;-51
2021/12/31 18:56:24;;;;;;;10.93;3.70;;;18.20;73.00;;;;;;10482458;28;20461;-51
2021/12/31 19:01:25;;;;;;;9.25;4.40;;;18.30;72.50;;;;;;10462943;28;20376;-48
2021/12/31 19:06:25;;;;;;;11.90;4.10;;;18.50;72.10;;;;;;10523348;28;20046;-50
2021/12/31 19:11:26;;;;;;;7.95;4.03;;;18.70;71.40;;;;;;10507140;28;20029;-48
2021/12/31 19:16:27;;;;;;;11.25;3.42;;;18.50;71.90;;;;;;10500543;28;20544;-50
2021/12/31 19:21:28;;;;;;;8.98;3.67;;;18.30;72.70;;;;;;10500474;28;20435;-45
2021/12/31 19:26:28;;;;;;;7.00;3.35;;;18.20;72.90;;;;;;10532061;28;20105;-46
2021/12/31 19:31:29;;;;;;;11.70;3.30;;;18.10;72.90;;;;;;10489160;28;20456;-48
2021/12/31 19:36:30;;;;;;;9.55;3.58;;;18.10;73.00;;;;;;10499701;28;20436;-46
2021/12/31 19:41:31;;;;;;;9.50;4.32;;;18.00;73.10;;;;;;10499030;28;20064;-45
2021/12/31 19:46:31;;;;;;;14.38;4.55;;;18.00;73.30;;;;;;10533381;28;20039;-50
2021/12/31 19:51:32;;;;;;;8.95;3.92;;;18.00;74.30;;;;;;10536841;28;20032;-46
2021/12/31 19:56:33;;;;;;;7.45;3.70;;;18.00;74.00;;;;;;10536537;28;20154;-48
2021/12/31 20:01:34;;;;;;;9.30;4.43;;;17.90;73.70;;;;;;10524298;28;20032;-44
2021/12/31 20:06:35;;;;;;;9.25;3.90;;;17.90;74.10;;;;;;10498666;28;20047;-44
2021/12/31 20:11:36;;;;;;;10.55;3.95;;;17.90;74.00;;;;;;10514906;28;20028;-43
2021/12/31 20:16:37;;;;;;;7.28;3.55;;;17.90;74.40;;;;;;10532846;28;20035;-44
2021/12/31 20:21:38;;;;;;;9.80;3.72;;;17.90;74.20;;;;;;10535969;28;20532;-48
2021/12/31 20:26:39;;;;;;;10.73;3.72;;;17.90;73.90;;;;;;10526620;28;20053;-47
2021/12/31 20:31:40;;;;;;;10.43;3.90;;;18.00;73.50;;;;;;10523166;28;20057;-44
2021/12/31 20:36:41;;;;;;;7.10;3.83;;;18.00;73.30;;;;;;10523248;28;20028;-46
2021/12/31 20:41:41;;;;;;;6.25;2.88;;;17.90;73.30;;;;;;10491024;28;20111;-46
2021/12/31 20:46:42;;;;;;;6.95;3.25;;;17.90;73.40;;;;;;10500521;28;20035;-44
2021/12/31 20:51:43;;;;;;;7.47;3.80;;;17.90;73.40;;;;;;10489482;28;20029;-48
2021/12/31 20:56:44;;;;;;;5.80;3.17;;;17.90;73.10;;;;;;10492697;28;20472;-45
2021/12/31 21:01:45;;;;;;;7.80;4.07;;;18.00;72.80;;;;;;10499359;28;20025;-44
2021/12/31 21:06:46;;;;;;;5.78;3.50;;;18.00;72.60;;;;;;10475958;28;20059;-47
2021/12/31 21:11:46;;;;;;;5.05;2.92;;;18.00;72.40;;;;;;10493304;28;20040;-45
2021/12/31 21:16:47;;;;;;;6.78;3.40;;;18.10;72.30;;;;;;10499241;28;20020;-49
2021/12/31 21:21:48;;;;;;;7.35;3.50;;;18.10;71.90;;;;;;10514934;28;20048;-44
2021/12/31 21:26:48;;;;;;;6.03;3.25;;;18.20;71.60;;;;;;10483117;28;20396;-48
2021/12/31 21:31:49;;;;;;;5.15;3.13;;;18.30;71.60;;;;;;10500644;28;20031;-47
2021/12/31 21:36:53;;;;;;;4.38;2.50;;;18.30;71.60;;;;;;10500472;28;20032;-47
2021/12/31 21:41:54;;;;;;;6.95;3.40;;;18.20;71.40;;;;;;10482487;28;20046;-44
2021/12/31 21:46:55;;;;;;;4.00;2.45;;;18.30;71.20;;;;;;10538783;28;20472;-45
2021/12/31 21:51:55;;;;;;;5.88;3.20;;;18.30;71.10;;;;;;10542307;28;20027;-47
2021/12/31 21:56:56;;;;;;;4.18;2.80;;;18.30;71.20;;;;;;10541605;28;20099;-45
2021/12/31 22:01:57;;;;;;;4.13;2.80;;;18.20;71.40;;;;;;10520537;28;20032;-48
2021/12/31 22:06:59;;;;;;;6.75;2.67;;;18.20;71.40;;;;;;10481451;28;20033;-48
2021/12/31 22:12:00;;;;;;;6.82;3.30;;;18.30;71.10;;;;;;10481378;28;20108;-44
2021/12/31 22:17:01;;;;;;;4.82;2.80;;;18.30;71.20;;;;;;10499542;28;20476;-44
2021/12/31 22:22:02;;;;;;;4.78;2.90;;;18.20;71.20;;;;;;10480685;28;20098;-44
2021/12/31 22:27:04;;;;;;;4.05;2.58;;;18.20;71.30;;;;;;10497984;28;20033;-45
2021/12/31 22:32:05;;;;;;;3.72;2.72;;;18.30;71.00;;;;;;10498478;28;20029;-45
2021/12/31 22:37:06;;;;;;;5.13;3.00;;;18.30;70.90;;;;;;10511874;28;20025;-44
2021/12/31 22:42:07;;;;;;;5.35;2.97;;;18.30;70.90;;;;;;10479843;28;20499;-44
2021/12/31 22:47:09;;;;;;;3.40;2.42;;;18.30;71.00;;;;;;10519457;28;20391;-45
2021/12/31 22:52:09;;;;;;;5.05;3.17;;;18.30;70.80;;;;;;10539633;28;20028;-47
2021/12/31 22:57:10;;;;;;;6.32;2.78;;;18.30;70.60;;;;;;10539007;28;20103;-46
2021/12/31 23:02:11;;;;;;;4.88;3.10;;;18.30;70.70;;;;;;10515634;28;20035;-46
2021/12/31 23:07:11;;;;;;;5.75;2.80;;;18.30;70.80;;;;;;10496621;28;20016;-45
2021/12/31 23:12:12;;;;;;;3.70;2.40;;;18.20;70.90;;;;;;10496276;28;20040;-43
2021/12/31 23:17:13;;;;;;;4.15;2.70;;;18.20;71.00;;;;;;10496122;28;20086;-44
2021/12/31 23:22:14;;;;;;;4.28;3.00;;;18.30;70.80;;;;;;10495679;28;20622;-43
2021/12/31 23:27:16;;;;;;;3.75;3.00;;;18.20;70.70;;;;;;10477875;28;20551;-43
2021/12/31 23:32:17;;;;;;;4.03;3.15;;;18.20;70.80;;;;;;10495742;28;20028;-44
2021/12/31 23:37:18;;;;;;;5.32;3.15;;;18.20;70.90;;;;;;10476552;28;20395;-43
2021/12/31 23:42:29;;;;;;;3.55;2.63;;;18.10;71.00;;;;;;10477499;28;20503;-44
2021/12/31 23:47:31;;;;;;;3.85;3.05;;;18.20;70.80;;;;;;10537005;28;20034;-44
2021/12/31 23:52:33;;;;;;;5.28;3.47;;;18.20;70.70;;;;;;10498674;28;20029;-43
2021/12/31 23:57:34;;;;;;;4.70;3.22;;;18.20;70.80;;;;;;10495244;28;20407;-43
